sensor_id;sensor_type;location;lat;lon;timestamp;pressure;altitude;pressure_sealevel;temperature;humidity
21633;BME280;48765;51.568;8.840;2022-10-23T00:01:28;98504.22;;;10.44;100.00
21633;BME280;48765;51.568;8.840;2022-10-23T00:03:56;98505.19;;;10.28;100.00
21633;BME280;48765;51.568;8.840;2022-10-23T00:06:23;98503.41;;;10.26;100.00
21633;BME280;48765;51.568;8.840;2022-10-23T00:08:50;98498.97;;;10.29;100.00
21633;BME280;48765;51.568;8.840;2022-10-23T00:11:17;98492.81;;;10.19;100.00
21633;BME280;48765;51.568;8.840;2022-10-23T00:13:44;98490.28;;;9.90;100.00
21633;BME280;48765;51.568;8.840;2022-10-23T00:16:11;98484.97;;;9.99;100.00
21633;BME280;48765;51.568;8.840;2022-10-23T00:18:39;98496.41;;;10.02;100.00
21633;BME280;48765;51.568;8.840;2022-10-23T00:21:06;98491.19;;;9.82;100.00
21633;BME280;48765;51.568;8.840;2022-10-23T00:23:33;98493.81;;;9.95;100.00
21633;BME280;48765;51.568;8.840;2022-10-23T00:26:00;98502.59;;;10.05;100.00
21633;BME280;48765;51.568;8.840;2022-10-23T00:28:27;98499.97;;;10.01;100.00
21633;BME280;48765;51.568;8.840;2022-10-23T00:30:54;98508.81;;;9.96;100.00
21633;BME280;48765;51.568;8.840;2022-10-23T00:33:21;98507.03;;;10.00;100.00
21633;BME280;48765;51.568;8.840;2022-10-23T00:35:49;98503.53;;;9.86;100.00
21633;BME280;48765;51.568;8.840;2022-10-23T00:38:15;98496.41;;;10.09;100.00
21633;BME280;48765;51.568;8.840;2022-10-23T00:40:42;98493.78;;;10.02;100.00
21633;BME280;48765;51.568;8.840;2022-10-23T00:43:15;98492.84;;;10.10;100.00
21633;BME280;48765;51.568;8.840;2022-10-23T00:45:42;98490.28;;;9.98;100.00
21633;BME280;48765;51.568;8.840;2022-10-23T00:48:08;98491.13;;;10.02;100.00
21633;BME280;48765;51.568;8.840;2022-10-23T00:50:35;98491.97;;;10.07;100.00
21633;BME280;48765;51.568;8.840;2022-10-23T00:53:04;98477.91;;;9.95;100.00
21633;BME280;48765;51.568;8.840;2022-10-23T00:55:31;98485.88;;;9.83;100.00
21633;BME280;48765;51.568;8.840;2022-10-23T00:57:59;98486.78;;;9.88;100.00
21633;BME280;48765;51.568;8.840;2022-10-23T01:00:27;98478.88;;;9.71;100.00
21633;BME280;48765;51.568;8.840;2022-10-23T01:02:54;98488.56;;;9.85;100.00
21633;BME280;48765;51.568;8.840;2022-10-23T01:05:23;98484.09;;;9.96;100.00
21633;BME280;48765;51.568;8.840;2022-10-23T01:07:51;98485.81;;;10.02;100.00
21633;BME280;48765;51.568;8.840;2022-10-23T01:10:22;98480.59;;;9.89;100.00
21633;BME280;48765;51.568;8.840;2022-10-23T01:12:54;98477.13;;;9.69;100.00
21633;BME280;48765;51.568;8.840;2022-10-23T01:15:27;98470.91;;;9.85;100.00
21633;BME280;48765;51.568;8.840;2022-10-23T01:17:57;98474.44;;;9.89;100.00
21633;BME280;48765;51.568;8.840;2022-10-23T01:20:30;98474.44;;;9.81;100.00
21633;BME280;48765;51.568;8.840;2022-10-23T01:25:52;98468.28;;;9.73;100.00
21633;BME280;48765;51.568;8.840;2022-10-23T01:28:25;98470.91;;;9.84;100.00
21633;BME280;48765;51.568;8.840;2022-10-23T01:30:53;98465.63;;;9.76;100.00
21633;BME280;48765;51.568;8.840;2022-10-23T01:33:22;98481.50;;;9.82;100.00
21633;BME280;48765;51.568;8.840;2022-10-23T01:35:52;98472.72;;;9.68;100.00
21633;BME280;48765;51.568;8.840;2022-10-23T01:38:21;98478.00;;;9.68;100.00
21633;BME280;48765;51.568;8.840;2022-10-23T01:40:52;98474.44;;;9.73;100.00
21633;BME280;48765;51.568;8.840;2022-10-23T01:43:23;98466.53;;;9.67;100.00
21633;BME280;48765;51.568;8.840;2022-10-23T01:45:54;98468.34;;;9.52;100.00
21633;BME280;48765;51.568;8.840;2022-10-23T01:48:24;98469.19;;;9.66;100.00
21633;BME280;48765;51.568;8.840;2022-10-23T01:50:51;98465.63;;;9.73;100.00
21633;BME280;48765;51.568;8.840;2022-10-23T01:53:18;98469.19;;;9.66;100.00
21633;BME280;48765;51.568;8.840;2022-10-23T01:55:46;98464.78;;;9.59;100.00
21633;BME280;48765;51.568;8.840;2022-10-23T01:58:14;98462.16;;;9.62;100.00
21633;BME280;48765;51.568;8.840;2022-10-23T02:00:41;98461.28;;;9.57;100.00
21633;BME280;48765;51.568;8.840;2022-10-23T02:03:11;98461.31;;;9.35;100.00
21633;BME280;48765;51.568;8.840;2022-10-23T02:05:39;98460.41;;;9.52;100.00
21633;BME280;48765;51.568;8.840;2022-10-23T02:08:06;98458.63;;;9.58;100.00
21633;BME280;48765;51.568;8.840;2022-10-23T02:10:34;98460.38;;;9.55;100.00
21633;BME280;48765;51.568;8.840;2022-10-23T02:13:06;98460.41;;;9.58;100.00
21633;BME280;48765;51.568;8.840;2022-10-23T02:15:35;98458.69;;;9.29;100.00
21633;BME280;48765;51.568;8.840;2022-10-23T02:18:05;98452.50;;;9.39;100.00
21633;BME280;48765;51.568;8.840;2022-10-23T02:20:36;98450.72;;;9.35;100.00
21633;BME280;48765;51.568;8.840;2022-10-23T02:23:07;98452.53;;;9.21;100.00
21633;BME280;48765;51.568;8.840;2022-10-23T02:25:38;98448.97;;;9.31;100.00
21633;BME280;48765;51.568;8.840;2022-10-23T02:28:09;98445.47;;;9.29;100.00
21633;BME280;48765;51.568;8.840;2022-10-23T02:30:39;98432.25;;;9.17;100.00
21633;BME280;48765;51.568;8.840;2022-10-23T02:33:07;98431.38;;;9.23;100.00
21633;BME280;48765;51.568;8.840;2022-10-23T02:35:35;98439.34;;;8.74;100.00
21633;BME280;48765;51.568;8.840;2022-10-23T02:38:02;98441.09;;;8.91;100.00
21633;BME280;48765;51.568;8.840;2022-10-23T02:40:30;98425.22;;;9.07;100.00
21633;BME280;48765;51.568;8.840;2022-10-23T02:43:01;98418.16;;;9.03;100.00
21633;BME280;48765;51.568;8.840;2022-10-23T02:45:33;98414.66;;;9.02;100.00
21633;BME280;48765;51.568;8.840;2022-10-23T02:48:03;98421.69;;;9.02;100.00
21633;BME280;48765;51.568;8.840;2022-10-23T02:50:32;98409.34;;;9.02;100.00
21633;BME280;48765;51.568;8.840;2022-10-23T02:53:05;98412.88;;;8.84;100.00
21633;BME280;48765;51.568;8.840;2022-10-23T02:55:36;98404.97;;;8.86;100.00
21633;BME280;48765;51.568;8.840;2022-10-23T02:58:07;98412.00;;;9.02;100.00
21633;BME280;48765;51.568;8.840;2022-10-23T03:00:36;98406.72;;;9.05;100.00
21633;BME280;48765;51.568;8.840;2022-10-23T03:03:05;98412.88;;;9.03;100.00
21633;BME280;48765;51.568;8.840;2022-10-23T03:05:34;98414.66;;;8.88;100.00
21633;BME280;48765;51.568;8.840;2022-10-23T03:08:02;98404.97;;;8.89;100.00
21633;BME280;48765;51.568;8.840;2022-10-23T03:10:30;98416.44;;;8.77;100.00
21633;BME280;48765;51.568;8.840;2022-10-23T03:12:57;98404.94;;;9.19;100.00
21633;BME280;48765;51.568;8.840;2022-10-23T03:15:24;98413.75;;;9.15;100.00
21633;BME280;48765;51.568;8.840;2022-10-23T03:17:50;98407.56;;;9.12;100.00
21633;BME280;48765;51.568;8.840;2022-10-23T03:20:17;98404.88;;;9.35;100.00
21633;BME280;48765;51.568;8.840;2022-10-23T03:22:44;98399.56;;;9.45;100.00
21633;BME280;48765;51.568;8.840;2022-10-23T03:25:10;98394.19;;;9.68;100.00
21633;BME280;48765;51.568;8.840;2022-10-23T03:27:39;98394.31;;;9.38;100.00
21633;BME280;48765;51.568;8.840;2022-10-23T03:30:06;98393.44;;;9.34;100.00
21633;BME280;48765;51.568;8.840;2022-10-23T03:32:33;98393.41;;;9.43;100.00
21633;BME280;48765;51.568;8.840;2022-10-23T03:34:59;98386.22;;;9.79;100.00
21633;BME280;48765;51.568;8.840;2022-10-23T03:37:26;98381.78;;;9.84;100.00
21633;BME280;48765;51.568;8.840;2022-10-23T03:39:53;98376.53;;;9.70;100.00
21633;BME280;48765;51.568;8.840;2022-10-23T03:42:20;98384.34;;;9.92;100.00
21633;BME280;48765;51.568;8.840;2022-10-23T03:44:48;98388.72;;;10.01;100.00
21633;BME280;48765;51.568;8.840;2022-10-23T03:47:15;98388.75;;;9.99;100.00
21633;BME280;48765;51.568;8.840;2022-10-23T03:49:42;98389.59;;;10.06;100.00
21633;BME280;48765;51.568;8.840;2022-10-23T03:52:08;98384.28;;;10.12;100.00
21633;BME280;48765;51.568;8.840;2022-10-23T03:54:35;98387.56;;;10.49;100.00
21633;BME280;48765;51.568;8.840;2022-10-23T03:57:02;98384.06;;;10.42;100.00
21633;BME280;48765;51.568;8.840;2022-10-23T03:59:29;98380.88;;;9.88;100.00
21633;BME280;48765;51.568;8.840;2022-10-23T04:01:57;98377.44;;;9.63;100.00
21633;BME280;48765;51.568;8.840;2022-10-23T04:04:24;98368.63;;;9.63;100.00
21633;BME280;48765;51.568;8.840;2022-10-23T04:06:51;98370.38;;;9.70;100.00
21633;BME280;48765;51.568;8.840;2022-10-23T04:09:18;98367.69;;;9.76;100.00
21633;BME280;48765;51.568;8.840;2022-10-23T04:11:44;98365.03;;;9.73;100.00
21633;BME280;48765;51.568;8.840;2022-10-23T04:14:11;98368.53;;;9.81;100.00
21633;BME280;48765;51.568;8.840;2022-10-23T04:16:38;98371.25;;;9.66;100.00
21633;BME280;48765;51.568;8.840;2022-10-23T04:19:06;98375.69;;;9.61;100.00
21633;BME280;48765;51.568;8.840;2022-10-23T04:21:33;98371.25;;;9.70;100.00
21633;BME280;48765;51.568;8.840;2022-10-23T04:24:00;98372.19;;;9.53;100.00
21633;BME280;48765;51.568;8.840;2022-10-23T04:26:27;98365.13;;;9.55;100.00
21633;BME280;48765;51.568;8.840;2022-10-23T04:28:53;98363.38;;;9.54;100.00
21633;BME280;48765;51.568;8.840;2022-10-23T04:31:20;98361.66;;;9.46;100.00
21633;BME280;48765;51.568;8.840;2022-10-23T04:33:47;98355.56;;;9.18;100.00
21633;BME280;48765;51.568;8.840;2022-10-23T04:36:15;98355.50;;;9.37;100.00
21633;BME280;48765;51.568;8.840;2022-10-23T04:38:42;98356.38;;;9.31;100.00
21633;BME280;48765;51.568;8.840;2022-10-23T04:41:09;98359.94;;;9.36;100.00
21633;BME280;48765;51.568;8.840;2022-10-23T04:43:36;98358.22;;;9.14;100.00
21633;BME280;48765;51.568;8.840;2022-10-23T04:46:03;98352.94;;;9.02;100.00
21633;BME280;48765;51.568;8.840;2022-10-23T04:48:30;98354.69;;;9.18;100.00
21633;BME280;48765;51.568;8.840;2022-10-23T04:50:57;98364.41;;;9.13;100.00
21633;BME280;48765;51.568;8.840;2022-10-23T04:53:25;98369.63;;;9.31;100.00
21633;BME280;48765;51.568;8.840;2022-10-23T04:55:53;98362.59;;;9.24;100.00
21633;BME280;48765;51.568;8.840;2022-10-23T04:58:20;98368.78;;;9.20;100.00
21633;BME280;48765;51.568;8.840;2022-10-23T05:00:47;98358.25;;;9.02;100.00
21633;BME280;48765;51.568;8.840;2022-10-23T05:03:14;98359.97;;;9.18;100.00
21633;BME280;48765;51.568;8.840;2022-10-23T05:05:41;98357.34;;;9.13;100.00
21633;BME280;48765;51.568;8.840;2022-10-23T05:08:08;98349.44;;;8.96;100.00
21633;BME280;48765;51.568;8.840;2022-10-23T05:10:37;98345.88;;;9.10;100.00
21633;BME280;48765;51.568;8.840;2022-10-23T05:13:04;98349.38;;;9.21;100.00
21633;BME280;48765;51.568;8.840;2022-10-23T05:15:30;98335.31;;;9.07;100.00
21633;BME280;48765;51.568;8.840;2022-10-23T05:17:57;98327.25;;;9.42;100.00
21633;BME280;48765;51.568;8.840;2022-10-23T05:20:27;98337.00;;;9.26;100.00
21633;BME280;48765;51.568;8.840;2022-10-23T05:22:55;98346.72;;;9.32;100.00
21633;BME280;48765;51.568;8.840;2022-10-23T05:25:23;98337.81;;;9.51;100.00
21633;BME280;48765;51.568;8.840;2022-10-23T05:27:51;98326.41;;;9.37;100.00
21633;BME280;48765;51.568;8.840;2022-10-23T05:30:18;98325.50;;;9.42;100.00
21633;BME280;48765;51.568;8.840;2022-10-23T05:32:45;98330.88;;;9.19;100.00
21633;BME280;48765;51.568;8.840;2022-10-23T05:35:12;98324.63;;;9.31;100.00
21633;BME280;48765;51.568;8.840;2022-10-23T05:37:41;98323.78;;;9.32;100.00
21633;BME280;48765;51.568;8.840;2022-10-23T05:40:09;98333.47;;;9.33;100.00
21633;BME280;48765;51.568;8.840;2022-10-23T05:42:36;98334.41;;;9.20;100.00
21633;BME280;48765;51.568;8.840;2022-10-23T05:45:05;98335.22;;;9.34;100.00
21633;BME280;48765;51.568;8.840;2022-10-23T05:47:32;98337.03;;;9.23;100.00
21633;BME280;48765;51.568;8.840;2022-10-23T05:49:58;98331.78;;;9.11;100.00
21633;BME280;48765;51.568;8.840;2022-10-23T05:52:25;98329.13;;;9.18;100.00
21633;BME280;48765;51.568;8.840;2022-10-23T05:54:52;98322.91;;;9.32;100.00
21633;BME280;48765;51.568;8.840;2022-10-23T05:57:18;98317.53;;;9.45;100.00
21633;BME280;48765;51.568;8.840;2022-10-23T05:59:45;98309.75;;;9.09;100.00
21633;BME280;48765;51.568;8.840;2022-10-23T06:02:13;98311.41;;;9.36;100.00
21633;BME280;48765;51.568;8.840;2022-10-23T06:04:40;98314.06;;;9.37;100.00
21633;BME280;48765;51.568;8.840;2022-10-23T06:07:06;98312.31;;;9.33;100.00
21633;BME280;48765;51.568;8.840;2022-10-23T06:09:33;98317.53;;;9.48;100.00
21633;BME280;48765;51.568;8.840;2022-10-23T06:12:00;98307.59;;;9.87;100.00
21633;BME280;48765;51.568;8.840;2022-10-23T06:14:27;98309.97;;;10.30;100.00
21633;BME280;48765;51.568;8.840;2022-10-23T06:16:53;98314.25;;;10.48;100.00
21633;BME280;48765;51.568;8.840;2022-10-23T06:19:21;98314.16;;;10.60;100.00
21633;BME280;48765;51.568;8.840;2022-10-23T06:21:48;98307.84;;;10.72;100.00
21633;BME280;48765;51.568;8.840;2022-10-23T06:24:15;98310.34;;;10.87;100.00
21633;BME280;48765;51.568;8.840;2022-10-23T06:26:41;98311.03;;;11.05;100.00
21633;BME280;48765;51.568;8.840;2022-10-23T06:29:08;98305.81;;;10.98;100.00
21633;BME280;48765;51.568;8.840;2022-10-23T06:31:35;98290.63;;;11.11;100.00
21633;BME280;48765;51.568;8.840;2022-10-23T06:34:01;98298.69;;;11.02;100.00
21633;BME280;48765;51.568;8.840;2022-10-23T06:36:29;98294.34;;;10.95;100.00
21633;BME280;48765;51.568;8.840;2022-10-23T06:38:56;98293.44;;;10.97;100.00
21633;BME280;48765;51.568;8.840;2022-10-23T06:41:23;98300.41;;;11.08;100.00
21633;BME280;48765;51.568;8.840;2022-10-23T06:43:50;98305.94;;;10.88;100.00
21633;BME280;48765;51.568;8.840;2022-10-23T06:46:17;98302.34;;;10.90;100.00
21633;BME280;48765;51.568;8.840;2022-10-23T06:48:44;98304.25;;;10.76;100.00
21633;BME280;48765;51.568;8.840;2022-10-23T06:51:12;98298.91;;;10.82;100.00
21633;BME280;48765;51.568;8.840;2022-10-23T06:53:40;98293.72;;;10.70;100.00
21633;BME280;48765;51.568;8.840;2022-10-23T06:56:07;98304.31;;;10.73;100.00
21633;BME280;48765;51.568;8.840;2022-10-23T06:58:35;98296.84;;;11.09;100.00
21633;BME280;48765;51.568;8.840;2022-10-23T07:01:03;98303.19;;;10.97;100.00
21633;BME280;48765;51.568;8.840;2022-10-23T07:03:30;98307.59;;;10.95;100.00
21633;BME280;48765;51.568;8.840;2022-10-23T07:05:58;98305.72;;;11.05;100.00
21633;BME280;48765;51.568;8.840;2022-10-23T07:08:25;98302.16;;;11.09;100.00
21633;BME280;48765;51.568;8.840;2022-10-23T07:10:53;98302.31;;;10.96;100.00
21633;BME280;48765;51.568;8.840;2022-10-23T07:13:21;98307.44;;;11.12;100.00
21633;BME280;48765;51.568;8.840;2022-10-23T07:15:49;98291.31;;;11.27;100.00
21633;BME280;48765;51.568;8.840;2022-10-23T07:18:15;98288.63;;;11.29;100.00
21633;BME280;48765;51.568;8.840;2022-10-23T07:20:43;98285.78;;;11.45;100.00
21633;BME280;48765;51.568;8.840;2022-10-23T07:23:12;98280.25;;;11.61;100.00
21633;BME280;48765;51.568;8.840;2022-10-23T07:25:40;98284.72;;;11.57;100.00
21633;BME280;48765;51.568;8.840;2022-10-23T07:28:08;98280.00;;;11.79;100.00
21633;BME280;48765;51.568;8.840;2022-10-23T07:30:35;98282.69;;;11.76;100.00
21633;BME280;48765;51.568;8.840;2022-10-23T07:33:01;98268.31;;;11.95;100.00
21633;BME280;48765;51.568;8.840;2022-10-23T07:35:28;98260.22;;;12.01;100.00
21633;BME280;48765;51.568;8.840;2022-10-23T07:37:55;98273.41;;;12.09;100.00
21633;BME280;48765;51.568;8.840;2022-10-23T07:40:22;98263.34;;;12.28;100.00
21633;BME280;48765;51.568;8.840;2022-10-23T07:42:48;98262.38;;;12.32;100.00
21633;BME280;48765;51.568;8.840;2022-10-23T07:45:17;98263.09;;;12.43;100.00
21633;BME280;48765;51.568;8.840;2022-10-23T07:47:48;98269.03;;;12.58;100.00
21633;BME280;48765;51.568;8.840;2022-10-23T07:50:15;98258.94;;;12.75;100.00
21633;BME280;48765;51.568;8.840;2022-10-23T07:52:42;98260.56;;;12.85;100.00
21633;BME280;48765;51.568;8.840;2022-10-23T07:55:08;98251.41;;;12.98;100.00
21633;BME280;48765;51.568;8.840;2022-10-23T07:57:36;98253.84;;;13.11;100.00
21633;BME280;48765;51.568;8.840;2022-10-23T08:00:03;98256.41;;;13.15;100.00
21633;BME280;48765;51.568;8.840;2022-10-23T08:02:34;98252.84;;;13.16;100.00
21633;BME280;48765;51.568;8.840;2022-10-23T08:05:00;98258.06;;;13.21;100.00
21633;BME280;48765;51.568;8.840;2022-10-23T08:07:27;98255.44;;;13.22;100.00
21633;BME280;48765;51.568;8.840;2022-10-23T08:09:54;98252.59;;;13.30;100.00
21633;BME280;48765;51.568;8.840;2022-10-23T08:12:20;98242.91;;;13.27;100.00
21633;BME280;48765;51.568;8.840;2022-10-23T08:14:47;98251.53;;;13.39;100.00
21633;BME280;48765;51.568;8.840;2022-10-23T08:17:14;98243.44;;;13.43;100.00
21633;BME280;48765;51.568;8.840;2022-10-23T08:19:42;98243.19;;;13.55;100.00
21633;BME280;48765;51.568;8.840;2022-10-23T08:22:11;98243.97;;;13.59;100.00
21633;BME280;48765;51.568;8.840;2022-10-23T08:24:38;98248.34;;;13.62;100.00
21633;BME280;48765;51.568;8.840;2022-10-23T08:27:05;98248.16;;;13.71;100.00
21633;BME280;48765;51.568;8.840;2022-10-23T08:29:31;98248.16;;;13.71;100.00
21633;BME280;48765;51.568;8.840;2022-10-23T08:31:58;98235.66;;;13.73;100.00
21633;BME280;48765;51.568;8.840;2022-10-23T08:34:25;98239.09;;;13.78;100.00
21633;BME280;48765;51.568;8.840;2022-10-23T08:36:53;98231.97;;;13.80;100.00
21633;BME280;48765;51.568;8.840;2022-10-23T08:39:20;98232.78;;;13.82;100.00
21633;BME280;48765;51.568;8.840;2022-10-23T08:41:47;98223.00;;;13.84;100.00
21633;BME280;48765;51.568;8.840;2022-10-23T08:44:17;98236.41;;;13.79;100.00
21633;BME280;48765;51.568;8.840;2022-10-23T08:46:48;98243.66;;;13.73;100.00
21633;BME280;48765;51.568;8.840;2022-10-23T08:49:19;98239.03;;;13.81;100.00
21633;BME280;48765;51.568;8.840;2022-10-23T08:51:49;98246.03;;;13.85;100.00
21633;BME280;48765;51.568;8.840;2022-10-23T08:54:19;98240.66;;;13.88;100.00
21633;BME280;48765;51.568;8.840;2022-10-23T08:56:48;98239.03;;;13.81;100.00
21633;BME280;48765;51.568;8.840;2022-10-23T08:59:18;98239.09;;;13.78;100.00
21633;BME280;48765;51.568;8.840;2022-10-23T09:01:51;98232.66;;;13.88;100.00
21633;BME280;48765;51.568;8.840;2022-10-23T09:04:21;98223.72;;;13.91;100.00
21633;BME280;48765;51.568;8.840;2022-10-23T09:06:49;98214.78;;;13.93;100.00
21633;BME280;48765;51.568;8.840;2022-10-23T09:09:25;98224.13;;;14.10;100.00
21633;BME280;48765;51.568;8.840;2022-10-23T09:11:57;98213.25;;;14.19;100.00
21633;BME280;48765;51.568;8.840;2022-10-23T09:17:15;98204.25;;;14.23;100.00
21633;BME280;48765;51.568;8.840;2022-10-23T09:19:46;98206.53;;;14.38;100.00
21633;BME280;48765;51.568;8.840;2022-10-23T09:22:13;98192.13;;;14.45;100.00
21633;BME280;48765;51.568;8.840;2022-10-23T09:24:42;98195.63;;;14.47;100.00
21633;BME280;48765;51.568;8.840;2022-10-23T09:27:09;98187.59;;;14.49;100.00
21633;BME280;48765;51.568;8.840;2022-10-23T09:29:45;98188.28;;;14.57;100.00
21633;BME280;48765;51.568;8.840;2022-10-23T09:32:12;98190.03;;;14.58;100.00
21633;BME280;48765;51.568;8.840;2022-10-23T09:34:48;98192.53;;;14.64;100.00
21633;BME280;48765;51.568;8.840;2022-10-23T09:37:19;98195.91;;;14.71;100.00
21633;BME280;48765;51.568;8.840;2022-10-23T09:39:48;98186.84;;;14.78;100.00
21633;BME280;48765;51.568;8.840;2022-10-23T09:42:20;98187.97;;;14.68;100.00
21633;BME280;48765;51.568;8.840;2022-10-23T09:44:48;98193.97;;;14.76;100.00
21633;BME280;48765;51.568;8.840;2022-10-23T09:47:16;98194.72;;;14.81;100.00
21633;BME280;48765;51.568;8.840;2022-10-23T09:49:45;98191.38;;;14.74;100.00
21633;BME280;48765;51.568;8.840;2022-10-23T09:52:21;98206.28;;;14.81;100.00
21633;BME280;48765;51.568;8.840;2022-10-23T09:54:50;98196.63;;;14.77;100.00
21633;BME280;48765;51.568;8.840;2022-10-23T09:57:19;98195.84;;;14.74;100.00
21633;BME280;48765;51.568;8.840;2022-10-23T09:59:49;98201.25;;;14.71;100.00
21633;BME280;48765;51.568;8.840;2022-10-23T10:02:19;98199.81;;;14.57;100.00
21633;BME280;48765;51.568;8.840;2022-10-23T10:04:47;98196.34;;;14.55;100.00
21633;BME280;48765;51.568;8.840;2022-10-23T10:07:16;98187.22;;;14.63;100.00
21633;BME280;48765;51.568;8.840;2022-10-23T10:09:44;98194.16;;;14.70;100.00
21633;BME280;48765;51.568;8.840;2022-10-23T10:12:17;98190.50;;;14.74;100.00
21633;BME280;48765;51.568;8.840;2022-10-23T10:14:47;98180.50;;;14.82;100.00
21633;BME280;48765;51.568;8.840;2022-10-23T10:17:19;98176.91;;;14.83;100.00
21633;BME280;48765;51.568;8.840;2022-10-23T10:19:59;98184.09;;;14.79;100.00
21633;BME280;48765;51.568;8.840;2022-10-23T10:22:30;98167.63;;;14.96;100.00
21633;BME280;48765;51.568;8.840;2022-10-23T10:25:00;98181.41;;;15.12;100.00
21633;BME280;48765;51.568;8.840;2022-10-23T10:27:38;98174.25;;;15.42;100.00
21633;BME280;48765;51.568;8.840;2022-10-23T10:30:11;98176.78;;;15.47;100.00
21633;BME280;48765;51.568;8.840;2022-10-23T10:32:40;98173.78;;;15.57;100.00
21633;BME280;48765;51.568;8.840;2022-10-23T10:35:16;98175.63;;;15.55;100.00
21633;BME280;48765;51.568;8.840;2022-10-23T10:37:47;98159.72;;;15.51;100.00
21633;BME280;48765;51.568;8.840;2022-10-23T10:40:18;98154.25;;;15.55;100.00
21633;BME280;48765;51.568;8.840;2022-10-23T10:42:54;98150.63;;;15.58;100.00
21633;BME280;48765;51.568;8.840;2022-10-23T10:45:30;98150.75;;;15.53;100.00
21633;BME280;48765;51.568;8.840;2022-10-23T10:48:06;98142.19;;;15.42;100.00
21633;BME280;48765;51.568;8.840;2022-10-23T10:50:38;98138.78;;;15.37;100.00
21633;BME280;48765;51.568;8.840;2022-10-23T10:53:08;98134.53;;;15.31;100.00
21633;BME280;48765;51.568;8.840;2022-10-23T10:55:41;98137.06;;;15.36;100.00
21633;BME280;48765;51.568;8.840;2022-10-23T10:58:12;98130.69;;;15.40;100.00
21633;BME280;48765;51.568;8.840;2022-10-23T11:00:40;98131.50;;;15.42;100.00
21633;BME280;48765;51.568;8.840;2022-10-23T11:03:11;98119.22;;;15.37;100.00
21633;BME280;48765;51.568;8.840;2022-10-23T11:05:47;98114.63;;;15.42;100.00
21633;BME280;48765;51.568;8.840;2022-10-23T11:08:15;98116.03;;;15.53;100.00
21633;BME280;48765;51.568;8.840;2022-10-23T11:10:45;98111.72;;;15.49;100.00
21633;BME280;48765;51.568;8.840;2022-10-23T11:13:21;98103.25;;;15.63;100.00
21633;BME280;48765;51.568;8.840;2022-10-23T11:15:50;98100.56;;;15.65;100.00
21633;BME280;48765;51.568;8.840;2022-10-23T11:18:20;98097.78;;;15.68;100.00
21633;BME280;48765;51.568;8.840;2022-10-23T11:20:52;98096.66;;;15.75;100.00
21633;BME280;48765;51.568;8.840;2022-10-23T11:26:08;98096.47;;;15.81;100.00
21633;BME280;48765;51.568;8.840;2022-10-23T11:28:49;98090.22;;;15.80;100.00
21633;BME280;48765;51.568;8.840;2022-10-23T11:31:24;98083.97;;;15.81;100.00
21633;BME280;48765;51.568;8.840;2022-10-23T11:34:01;98079.34;;;15.87;100.00
21633;BME280;48765;51.568;8.840;2022-10-23T11:36:38;98078.47;;;15.86;100.00
21633;BME280;48765;51.568;8.840;2022-10-23T11:39:13;98073.00;;;15.89;100.00
21633;BME280;48765;51.568;8.840;2022-10-23T11:41:45;98065.59;;;15.97;100.00
21633;BME280;48765;51.568;8.840;2022-10-23T11:44:22;98060.63;;;15.87;100.00
21633;BME280;48765;51.568;8.840;2022-10-23T11:46:57;98060.97;;;16.02;100.00
21633;BME280;48765;51.568;8.840;2022-10-23T11:49:25;98056.56;;;16.01;100.00
21633;BME280;48765;51.568;8.840;2022-10-23T11:51:58;98052.94;;;16.02;100.00
21633;BME280;48765;51.568;8.840;2022-10-23T11:54:25;98055.06;;;15.93;100.00
21633;BME280;48765;51.568;8.840;2022-10-23T11:56:53;98054.25;;;15.91;100.00
21633;BME280;48765;51.568;8.840;2022-10-23T11:59:21;98052.56;;;15.88;100.00
21633;BME280;48765;51.568;8.840;2022-10-23T12:01:50;98059.59;;;15.91;100.00
21633;BME280;48765;51.568;8.840;2022-10-23T12:04:19;98048.84;;;15.92;100.00
21633;BME280;48765;51.568;8.840;2022-10-23T12:06:47;98046.41;;;15.86;100.00
21633;BME280;48765;51.568;8.840;2022-10-23T12:09:22;98049.16;;;15.83;100.00
21633;BME280;48765;51.568;8.840;2022-10-23T12:12:00;98046.41;;;15.86;100.00
21633;BME280;48765;51.568;8.840;2022-10-23T12:14:29;98045.53;;;15.86;100.00
21633;BME280;48765;51.568;8.840;2022-10-23T12:16:57;98039.50;;;15.79;100.00
21633;BME280;48765;51.568;8.840;2022-10-23T12:19:25;98035.41;;;15.95;100.00
21633;BME280;48765;51.568;8.840;2022-10-23T12:21:52;98033.06;;;15.84;100.00
21633;BME280;48765;51.568;8.840;2022-10-23T12:24:27;98028.72;;;15.82;100.00
21633;BME280;48765;51.568;8.840;2022-10-23T12:26:59;98027.94;;;15.78;100.00
21633;BME280;48765;51.568;8.840;2022-10-23T12:29:31;98018.34;;;15.73;100.00
21633;BME280;48765;51.568;8.840;2022-10-23T12:32:07;98005.47;;;15.84;100.00
21633;BME280;48765;51.568;8.840;2022-10-23T12:34:44;98008.44;;;15.76;100.00
21633;BME280;48765;51.568;8.840;2022-10-23T12:40:05;97995.78;;;15.81;100.00
21633;BME280;48765;51.568;8.840;2022-10-23T12:42:32;97999.34;;;15.80;100.00
21633;BME280;48765;51.568;8.840;2022-10-23T12:44:59;97994.78;;;15.84;100.00
21633;BME280;48765;51.568;8.840;2022-10-23T12:47:28;97993.13;;;15.80;100.00
21633;BME280;48765;51.568;8.840;2022-10-23T12:49:55;97989.44;;;15.84;100.00
21633;BME280;48765;51.568;8.840;2022-10-23T12:52:22;97996.44;;;15.88;100.00
21633;BME280;48765;51.568;8.840;2022-10-23T12:54:49;97985.97;;;15.82;100.00
21633;BME280;48765;51.568;8.840;2022-10-23T12:57:18;97988.25;;;15.93;100.00
21633;BME280;48765;51.568;8.840;2022-10-23T12:59:45;97987.47;;;15.89;100.00
21633;BME280;48765;51.568;8.840;2022-10-23T13:02:20;97989.66;;;15.78;100.00
21633;BME280;48765;51.568;8.840;2022-10-23T13:04:49;97979.91;;;15.77;100.00
21633;BME280;48765;51.568;8.840;2022-10-23T13:07:17;97974.50;;;15.78;100.00
21633;BME280;48765;51.568;8.840;2022-10-23T13:09:45;97973.88;;;15.70;100.00
21633;BME280;48765;51.568;8.840;2022-10-23T13:12:15;97966.88;;;15.68;100.00
21633;BME280;48765;51.568;8.840;2022-10-23T13:14:52;97966.88;;;15.68;100.00